This is the latest recevied weather packets stored in our database for station/object F4AMY-13. If no packets are shown the sender has not sent any weather packets the latest 10 day(s).
| Time | Temp. | Humidity | Pressure | Rain* | Wind** | Luminosity | Snow |
|---|---|---|---|---|---|---|---|
| 1777209947 | 25° C | 55% | 1015.6 hPa | 0 mm | 118.91 m/s, ° | 266 W/m² | - |
| 1777209647 | 25° C | 59% | 1015.9 hPa | 0 mm | 157.81 m/s, ° | 353 W/m² | - |
| 1777209346 | 25° C | 58% | 1015.6 hPa | 0 mm | 162.72 m/s, ° | 364 W/m² | - |
| 1777209046 | 25° C | 55% | 1015.8 hPa | 0 mm | 186.42 m/s, ° | 417 W/m² | - |
| 1777208746 | 24.44° C | 57% | 1015.8 hPa | 0 mm | 183.73 m/s, ° | 411 W/m² | - |
| 1777208446 | 24.44° C | 57% | 1015.9 hPa | 0 mm | 185.07 m/s, ° | 414 W/m² | - |
| 1777208146 | 24.44° C | 58% | 1015.8 hPa | 0 mm | 189.99 m/s, ° | 425 W/m² | - |
| 1777207846 | 24.44° C | 57% | 1015.9 hPa | 0 mm | 199.38 m/s, ° | 446 W/m² | - |
| 1777207546 | 24.44° C | 57% | 1015.8 hPa | 0 mm | 189.1 m/s, ° | 423 W/m² | - |
| 1777207246 | 23.89° C | 58% | 1016 hPa | 0 mm | 178.37 m/s, ° | 399 W/m² | - |
| 1777206946 | 23.89° C | 60% | 1015.7 hPa | 0 mm | 158.25 m/s, ° | 354 W/m² | - |
| 1777206646 | 24.44° C | 59% | 1015.7 hPa | 0 mm | 164.06 m/s, ° | 367 W/m² | - |
| 1777206346 | 24.44° C | 61% | 1015.6 hPa | 0 mm | 163.62 m/s, ° | 366 W/m² | - |
| 1777206046 | 24.44° C | 60% | 1015.7 hPa | 0 mm | 170.32 m/s, ° | 381 W/m² | - |
| 1777205746 | 24.44° C | 59% | 1015.8 hPa | 0 mm | 169.43 m/s, ° | 379 W/m² | - |
| 1777205664 | 24.44° C | 62% | 1015.7 hPa | 0 mm | 172.56 m/s, ° | 386 W/m² | - |
| 1777205364 | 24.44° C | 57% | 1015.7 hPa | 0 mm | 161.38 m/s, ° | 361 W/m² | - |
| 1777205064 | 23.89° C | 59% | 1015.8 hPa | 0 mm | 201.17 m/s, ° | 450 W/m² | - |
| 1777204343 | 23.89° C | 59% | 1015.6 hPa | 0 mm | 193.12 m/s, ° | 432 W/m² | - |
| 1777204043 | 23.89° C | 59% | 1015.7 hPa | 0 mm | 189.99 m/s, ° | 425 W/m² | - |
| 1777203743 | 23.89° C | 61% | 1015.9 hPa | 0 mm | 179.26 m/s, ° | 401 W/m² | - |
| 1777203443 | 23.33° C | 60% | 1015.7 hPa | 0 mm | 173.45 m/s, ° | 388 W/m² | - |
| 1777203143 | 23.33° C | 61% | 1016 hPa | 0 mm | 195.8 m/s, ° | 438 W/m² | - |
| 1777202842 | 23.33° C | 60% | 1015.7 hPa | 0 mm | 194.02 m/s, ° | 434 W/m² | - |
| 1777202542 | 23.33° C | 61% | 1015.9 hPa | 0 mm | 189.54 m/s, ° | 424 W/m² | - |
* Rain latest hour (hover to see other rain measurements)
** Current wind speed in m/s (hover to see current wind gust speed)